Time;durP1;ratioP1;P1;durP2;ratioP2;P2;SDS_P1;SDS_P2;PMS_P1;PMS_P2;Temp;Humidity;BMP_temperature;BMP_pressure;BME280_temperature;BME280_humidity;BME280_pressure;Samples;Min_cycle;Max_cycle;Signal;HPM_P1;HPM_P2
2021/12/20 00:02:12;;;;;;;1999.90;999.90;;;;;;;;;;5012434;28;20213;-72
2021/12/20 00:04:59;;;;;;;1999.90;999.90;;;;;;;;;;5012463;28;20715;-73
2021/12/20 00:07:45;;;;;;;1999.90;999.90;;;;;;;;;;5012130;28;20213;-68
2021/12/20 00:10:30;;;;;;;1999.90;999.90;;;;;;;;;;5009263;28;20216;-73
2021/12/20 00:13:16;;;;;;;1999.90;999.90;;;;;;;;;;5012702;28;20267;-73
2021/12/20 00:16:01;;;;;;;1999.90;999.90;;;;;;;;;;5012469;28;20733;-73
2021/12/20 00:18:46;;;;;;;1999.90;999.90;;;;;;;;;;5012359;28;20206;-73
2021/12/20 00:21:31;;;;;;;1999.90;999.90;;;;;;;;;;5012488;28;20203;-73
2021/12/20 00:24:18;;;;;;;1999.90;999.90;;;;;;;;;;5012363;28;20606;-72
2021/12/20 00:27:07;;;;;;;1999.90;999.90;;;;;;;;;;5012245;28;20347;-72
2021/12/20 00:29:52;;;;;;;1999.90;999.90;;;;;;;;;;5012421;28;20201;-72
2021/12/20 00:32:37;;;;;;;1999.90;999.90;;;;;;;;;;5012592;28;20209;-73
2021/12/20 00:35:24;;;;;;;1999.90;999.90;;;;;;;;;;5022081;28;20225;-72
2021/12/20 00:41:14;;;;;;;1999.90;999.90;;;;;;;;;;5031870;28;20200;-72
2021/12/20 00:44:00;;;;;;;1999.90;999.90;;;;;;;;;;5030694;28;20512;-72
2021/12/20 00:46:44;;;;;;;1999.90;999.90;;;;;;;;;;5031870;28;20221;-72
2021/12/20 00:49:29;;;;;;;1999.90;999.90;;;;;;;;;;5031706;28;20266;-73
2021/12/20 00:52:14;;;;;;;1999.90;999.90;;;;;;;;;;5031879;28;20430;-72
2021/12/20 00:54:59;;;;;;;1999.90;999.90;;;;;;;;;;5031221;28;20366;-73
2021/12/20 00:57:45;;;;;;;1999.90;999.90;;;;;;;;;;5031512;28;20211;-72
2021/12/20 01:00:32;;;;;;;1999.90;999.90;;;;;;;;;;5031544;28;20681;-72
2021/12/20 01:03:17;;;;;;;1999.90;999.90;;;;;;;;;;5031637;28;20207;-72
2021/12/20 01:06:02;;;;;;;1999.90;999.90;;;;;;;;;;5031610;28;20310;-73
2021/12/20 01:08:49;;;;;;;1999.90;999.90;;;;;;;;;;5031122;28;20350;-72
2021/12/20 01:11:39;;;;;;;1999.90;999.90;;;;;;;;;;5031498;28;20204;-73
2021/12/20 01:14:27;;;;;;;1999.90;999.90;;;;;;;;;;5031521;28;20325;-72
2021/12/20 01:17:12;;;;;;;1999.90;999.90;;;;;;;;;;5031643;28;20586;-73
2021/12/20 01:19:57;;;;;;;1999.90;999.90;;;;;;;;;;5031585;28;20220;-73
2021/12/20 01:22:46;;;;;;;1999.90;999.90;;;;;;;;;;5031382;28;20311;-73
2021/12/20 01:25:31;;;;;;;1999.90;999.90;;;;;;;;;;5031023;28;20238;-73
2021/12/20 01:28:16;;;;;;;1999.90;999.90;;;;;;;;;;5031401;28;20213;-72
2021/12/20 01:31:02;;;;;;;1999.90;999.90;;;;;;;;;;5031587;28;20744;-72
2021/12/20 01:33:47;;;;;;;1999.90;999.90;;;;;;;;;;5031425;28;20195;-73
2021/12/20 01:36:32;;;;;;;1999.90;999.90;;;;;;;;;;5031312;28;20272;-72
2021/12/20 01:39:17;;;;;;;1999.90;999.90;;;;;;;;;;5031213;28;20205;-72
2021/12/20 01:42:04;;;;;;;1999.90;999.90;;;;;;;;;;5031421;28;20360;-72
2021/12/20 01:44:50;;;;;;;1999.90;999.90;;;;;;;;;;5031126;28;20874;-72
2021/12/20 01:47:38;;;;;;;1999.90;999.90;;;;;;;;;;5031239;28;20212;-71
2021/12/20 01:50:36;;;;;;;1999.90;999.90;;;;;;;;;;5031218;28;20301;-73
2021/12/20 01:53:22;;;;;;;1999.90;999.90;;;;;;;;;;5031448;28;20591;-72
2021/12/20 01:56:08;;;;;;;1999.90;999.90;;;;;;;;;;5031282;28;20623;-71
2021/12/20 01:58:53;;;;;;;1999.90;999.90;;;;;;;;;;5031019;28;20207;-72
2021/12/20 02:01:37;;;;;;;1999.90;999.90;;;;;;;;;;5031424;28;20722;-73
2021/12/20 02:04:24;;;;;;;1999.90;999.90;;;;;;;;;;5030577;28;20433;-72
2021/12/20 02:07:09;;;;;;;1999.90;999.90;;;;;;;;;;5031497;28;20200;-73
2021/12/20 02:09:54;;;;;;;1999.90;999.90;;;;;;;;;;5034690;28;20206;-73
2021/12/20 02:12:39;;;;;;;1999.90;999.90;;;;;;;;;;5034948;28;20215;-73
2021/12/20 02:15:24;;;;;;;1999.90;999.90;;;;;;;;;;5034493;28;20257;-73
2021/12/20 02:18:09;;;;;;;1999.90;999.90;;;;;;;;;;5034217;28;20694;-72
2021/12/20 02:20:55;;;;;;;1999.90;999.90;;;;;;;;;;5034661;28;20575;-73
2021/12/20 02:23:40;;;;;;;1999.90;999.90;;;;;;;;;;5034345;28;20362;-72
2021/12/20 02:26:25;;;;;;;1999.90;999.90;;;;;;;;;;5034295;28;20234;-73
2021/12/20 02:29:10;;;;;;;1999.90;999.90;;;;;;;;;;5034235;28;20209;-72
2021/12/20 02:38:06;;;;;;;1999.90;999.90;;;;;;;;;;5015707;28;20515;-72
2021/12/20 02:40:56;;;;;;;1999.90;999.90;;;;;;;;;;5034034;28;20208;-72
2021/12/20 02:43:42;;;;;;;1999.90;999.90;;;;;;;;;;5033879;28;20215;-72
2021/12/20 02:46:45;;;;;;;1999.90;999.90;;;;;;;;;;5034111;28;20294;-70
2021/12/20 02:49:30;;;;;;;1999.90;999.90;;;;;;;;;;5033694;28;20679;-72
2021/12/20 02:52:15;;;;;;;1999.90;999.90;;;;;;;;;;5033807;28;20586;-72
2021/12/20 02:55:01;;;;;;;1999.90;999.90;;;;;;;;;;5033768;28;20226;-73
2021/12/20 02:57:46;;;;;;;1999.90;999.90;;;;;;;;;;5033516;28;20607;-73
2021/12/20 03:00:31;;;;;;;1999.90;999.90;;;;;;;;;;5034008;28;20802;-73
2021/12/20 03:03:17;;;;;;;1999.90;999.90;;;;;;;;;;5033507;28;20694;-73
2021/12/20 03:06:07;;;;;;;1999.90;999.90;;;;;;;;;;5033414;28;20238;-73
2021/12/20 03:08:54;;;;;;;1999.90;999.90;;;;;;;;;;5033276;28;20199;-72
2021/12/20 03:11:40;;;;;;;1999.90;999.90;;;;;;;;;;5033602;28;20695;-73
2021/12/20 03:14:29;;;;;;;1999.90;999.90;;;;;;;;;;5033516;28;20218;-73
2021/12/20 03:17:14;;;;;;;1999.90;999.90;;;;;;;;;;5033420;28;20400;-73
2021/12/20 03:19:59;;;;;;;1999.90;999.90;;;;;;;;;;5033137;28;20207;-73
2021/12/20 03:22:44;;;;;;;1999.90;999.90;;;;;;;;;;5033554;28;20208;-73
2021/12/20 03:25:30;;;;;;;1999.90;999.90;;;;;;;;;;5033006;28;20816;-73
2021/12/20 03:28:16;;;;;;;1999.90;999.90;;;;;;;;;;5032646;28;20208;-73
2021/12/20 03:31:01;;;;;;;1999.90;999.90;;;;;;;;;;5033061;28;20575;-73
2021/12/20 03:33:46;;;;;;;1999.90;999.90;;;;;;;;;;5033142;28;20706;-72
2021/12/20 03:36:32;;;;;;;1999.90;999.90;;;;;;;;;;5032698;28;20753;-72
2021/12/20 03:39:17;;;;;;;1999.90;999.90;;;;;;;;;;5032847;28;20204;-72
2021/12/20 03:42:03;;;;;;;1999.90;999.90;;;;;;;;;;5032963;28;20211;-73
2021/12/20 03:44:49;;;;;;;1999.90;999.90;;;;;;;;;;5032490;28;20230;-72
2021/12/20 03:47:34;;;;;;;1999.90;999.90;;;;;;;;;;5032545;28;20210;-71
2021/12/20 03:50:19;;;;;;;1999.90;999.90;;;;;;;;;;5032777;28;20203;-72
2021/12/20 03:53:04;;;;;;;1999.90;999.90;;;;;;;;;;5032369;28;20789;-72
2021/12/20 03:55:49;;;;;;;1999.90;999.90;;;;;;;;;;5032592;28;20239;-73
2021/12/20 03:58:34;;;;;;;1999.90;999.90;;;;;;;;;;5032356;28;20217;-72
2021/12/20 04:01:21;;;;;;;1999.90;999.90;;;;;;;;;;5032660;28;20208;-72
2021/12/20 04:04:06;;;;;;;1999.90;999.90;;;;;;;;;;5032406;28;20710;-72
2021/12/20 04:06:51;;;;;;;1999.90;999.90;;;;;;;;;;5032602;28;20227;-73
2021/12/20 04:09:37;;;;;;;1999.90;999.90;;;;;;;;;;5032023;28;20203;-72
2021/12/20 04:12:22;;;;;;;1999.90;999.90;;;;;;;;;;5032334;28;20215;-72
2021/12/20 04:15:07;;;;;;;1999.90;999.90;;;;;;;;;;5032196;28;20598;-72
2021/12/20 04:17:54;;;;;;;1999.90;999.90;;;;;;;;;;5032099;28;20258;-72
2021/12/20 04:20:39;;;;;;;1999.90;999.90;;;;;;;;;;5032216;28;20207;-72
2021/12/20 04:23:24;;;;;;;1999.90;999.90;;;;;;;;;;5032207;28;20589;-72
2021/12/20 04:26:09;;;;;;;1999.90;999.90;;;;;;;;;;5032085;28;20931;-72
2021/12/20 04:28:54;;;;;;;1999.90;999.90;;;;;;;;;;5031841;28;20208;-72
2021/12/20 04:31:40;;;;;;;1999.90;999.90;;;;;;;;;;5031417;28;20201;-72
2021/12/20 04:34:27;;;;;;;1999.90;999.90;;;;;;;;;;5032085;28;20564;-73
2021/12/20 04:37:11;;;;;;;1999.90;999.90;;;;;;;;;;5031893;28;20357;-72
2021/12/20 04:39:57;;;;;;;1999.90;999.90;;;;;;;;;;5031877;28;20208;-72
2021/12/20 04:42:42;;;;;;;1999.90;999.90;;;;;;;;;;5032053;28;20800;-71
2021/12/20 04:45:28;;;;;;;1999.90;999.90;;;;;;;;;;5031679;28;20243;-73
2021/12/20 04:48:12;;;;;;;1999.90;999.90;;;;;;;;;;5031467;28;20207;-72
2021/12/20 04:50:59;;;;;;;1999.90;999.90;;;;;;;;;;5031185;28;20417;-72
2021/12/20 04:53:43;;;;;;;1999.90;999.90;;;;;;;;;;5031623;28;20340;-73
2021/12/20 04:56:28;;;;;;;1999.90;999.90;;;;;;;;;;5031784;28;20227;-73
2021/12/20 04:59:13;;;;;;;1999.90;999.90;;;;;;;;;;5031701;28;20748;-73
2021/12/20 05:01:58;;;;;;;1999.90;999.90;;;;;;;;;;5031774;28;20342;-73
2021/12/20 05:04:43;;;;;;;1999.90;999.90;;;;;;;;;;5031575;28;20305;-72
2021/12/20 05:07:30;;;;;;;1999.90;999.90;;;;;;;;;;5031686;28;20207;-72
2021/12/20 05:10:25;;;;;;;1999.90;999.90;;;;;;;;;;5031713;28;20212;-72
2021/12/20 05:13:12;;;;;;;1999.90;999.90;;;;;;;;;;5031814;28;20203;-71
2021/12/20 05:15:57;;;;;;;1999.90;999.90;;;;;;;;;;5031200;28;20227;-72
2021/12/20 05:18:41;;;;;;;1999.90;999.90;;;;;;;;;;5031293;28;20286;-72
2021/12/20 05:21:26;;;;;;;1999.90;999.90;;;;;;;;;;5031533;28;20273;-72
2021/12/20 05:24:12;;;;;;;1999.90;999.90;;;;;;;;;;5031602;28;20219;-72
2021/12/20 05:26:58;;;;;;;1999.90;999.90;;;;;;;;;;5017414;28;20271;-71
2021/12/20 05:29:42;;;;;;;1999.90;999.90;;;;;;;;;;5008258;28;20195;-73
2021/12/20 05:32:28;;;;;;;1999.90;999.90;;;;;;;;;;5009146;28;20695;-68
2021/12/20 05:35:14;;;;;;;1999.90;999.90;;;;;;;;;;5002795;28;20351;-71
2021/12/20 05:37:59;;;;;;;1999.90;999.90;;;;;;;;;;5009051;28;20211;-71
2021/12/20 05:40:46;;;;;;;1999.90;999.90;;;;;;;;;;5010432;28;20211;-72
2021/12/20 05:43:31;;;;;;;1999.90;999.90;;;;;;;;;;5012589;28;20205;-73
2021/12/20 05:46:16;;;;;;;1999.90;999.90;;;;;;;;;;5013749;28;20358;-73
2021/12/20 05:49:01;;;;;;;1999.90;999.90;;;;;;;;;;5013655;28;20210;-72
2021/12/20 05:51:46;;;;;;;1999.90;999.90;;;;;;;;;;5012416;28;20541;-72
2021/12/20 05:54:31;;;;;;;1999.90;999.90;;;;;;;;;;5012151;28;20227;-71
2021/12/20 05:57:18;;;;;;;1999.90;999.90;;;;;;;;;;5013948;28;20210;-67
2021/12/20 06:00:05;;;;;;;1999.90;999.90;;;;;;;;;;5013711;28;20207;-69
2021/12/20 06:02:51;;;;;;;1999.90;999.90;;;;;;;;;;5012572;28;20295;-72
2021/12/20 06:05:37;;;;;;;1999.90;999.90;;;;;;;;;;5014232;28;20244;-70
2021/12/20 06:08:23;;;;;;;1999.90;999.90;;;;;;;;;;5013799;28;20215;-73
2021/12/20 06:11:07;;;;;;;1999.90;999.90;;;;;;;;;;5010313;28;20254;-72
2021/12/20 06:13:54;;;;;;;1999.90;999.90;;;;;;;;;;5013671;28;20217;-73
2021/12/20 06:16:39;;;;;;;1999.90;999.90;;;;;;;;;;5012326;28;20495;-73
2021/12/20 06:19:24;;;;;;;1999.90;999.90;;;;;;;;;;5013032;28;20211;-73
2021/12/20 06:22:10;;;;;;;1999.90;999.90;;;;;;;;;;5013576;28;20206;-73
2021/12/20 06:24:55;;;;;;;1999.90;999.90;;;;;;;;;;5008551;28;20771;-73
2021/12/20 06:27:40;;;;;;;1999.90;999.90;;;;;;;;;;5008772;28;20229;-69
2021/12/20 06:30:26;;;;;;;1999.90;999.90;;;;;;;;;;5011939;28;20217;-72
2021/12/20 06:33:11;;;;;;;1999.90;999.90;;;;;;;;;;5009640;28;20332;-72
2021/12/20 06:35:56;;;;;;;1999.90;999.90;;;;;;;;;;5013031;28;20225;-73
2021/12/20 06:38:46;;;;;;;1999.90;999.90;;;;;;;;;;5012903;28;20207;-72
2021/12/20 06:41:32;;;;;;;1999.90;999.90;;;;;;;;;;5013369;28;20689;-73
2021/12/20 06:44:17;;;;;;;1999.90;999.90;;;;;;;;;;5012701;28;20630;-73
2021/12/20 06:47:03;;;;;;;1999.90;999.90;;;;;;;;;;5011998;28;20300;-73
2021/12/20 06:49:49;;;;;;;1999.90;999.90;;;;;;;;;;5012525;28;20213;-71
2021/12/20 06:52:34;;;;;;;1999.90;999.90;;;;;;;;;;5011966;28;20220;-73
2021/12/20 06:55:19;;;;;;;1999.90;999.90;;;;;;;;;;5012802;28;20236;-71
2021/12/20 06:58:05;;;;;;;1999.90;999.90;;;;;;;;;;5012822;28;20363;-73
2021/12/20 07:00:50;;;;;;;1999.90;999.90;;;;;;;;;;5011282;28;20207;-73
2021/12/20 07:03:37;;;;;;;1999.90;999.90;;;;;;;;;;4996539;28;20696;-73
2021/12/20 07:06:22;;;;;;;1999.90;999.90;;;;;;;;;;5008805;28;20852;-72
2021/12/20 07:09:07;;;;;;;1999.90;999.90;;;;;;;;;;5003523;28;20212;-73
2021/12/20 07:11:53;;;;;;;1999.90;999.90;;;;;;;;;;5003677;28;20222;-72
2021/12/20 07:14:39;;;;;;;1999.90;999.90;;;;;;;;;;5009819;28;20231;-72
2021/12/20 07:17:24;;;;;;;1999.90;999.90;;;;;;;;;;5010302;28;20294;-73
2021/12/20 07:20:10;;;;;;;1999.90;999.90;;;;;;;;;;5005737;28;20222;-73
2021/12/20 07:22:55;;;;;;;1999.90;999.90;;;;;;;;;;4998409;28;20211;-73
2021/12/20 07:25:40;;;;;;;1999.90;999.90;;;;;;;;;;5012754;28;20262;-73
2021/12/20 07:28:25;;;;;;;1999.90;999.90;;;;;;;;;;5012906;28;20603;-73
2021/12/20 07:31:10;;;;;;;1999.90;999.90;;;;;;;;;;5007127;28;20212;-73
2021/12/20 07:33:56;;;;;;;1999.90;999.90;;;;;;;;;;5013342;28;20207;-72
2021/12/20 07:36:42;;;;;;;1999.90;999.90;;;;;;;;;;5010294;28;20201;-73
2021/12/20 07:39:27;;;;;;;1999.90;999.90;;;;;;;;;;5010294;28;20544;-72
2021/12/20 07:42:12;;;;;;;1999.90;999.90;;;;;;;;;;5002843;28;20216;-71
2021/12/20 07:44:57;;;;;;;1999.90;999.90;;;;;;;;;;5006772;28;20275;-72
2021/12/20 07:47:42;;;;;;;1999.90;999.90;;;;;;;;;;5009480;28;20269;-73
2021/12/20 07:50:27;;;;;;;1999.90;999.90;;;;;;;;;;5006323;28;20808;-72
2021/12/20 07:53:13;;;;;;;1999.90;999.90;;;;;;;;;;5012024;28;20264;-74
2021/12/20 07:55:59;;;;;;;1999.90;999.90;;;;;;;;;;5010613;28;20382;-70
2021/12/20 07:58:44;;;;;;;1999.90;999.90;;;;;;;;;;5010378;28;20206;-69
2021/12/20 08:01:29;;;;;;;1999.90;999.90;;;;;;;;;;5005064;28;20227;-73
2021/12/20 08:04:14;;;;;;;1999.90;999.90;;;;;;;;;;5011947;28;20397;-73
2021/12/20 08:06:59;;;;;;;1999.90;999.90;;;;;;;;;;5012802;28;20237;-72
2021/12/20 08:09:46;;;;;;;1999.90;999.90;;;;;;;;;;5005314;28;20212;-73
2021/12/20 08:12:31;;;;;;;1999.90;999.90;;;;;;;;;;5012280;28;20208;-73
2021/12/20 08:15:16;;;;;;;1999.90;999.90;;;;;;;;;;5012384;28;20232;-73
2021/12/20 08:18:01;;;;;;;1999.90;999.90;;;;;;;;;;5012311;28;20587;-73
2021/12/20 08:20:46;;;;;;;1999.90;999.90;;;;;;;;;;5013058;28;20692;-73
2021/12/20 08:23:31;;;;;;;1999.90;999.90;;;;;;;;;;5012532;28;20261;-73
2021/12/20 08:26:18;;;;;;;1999.90;999.90;;;;;;;;;;5012236;28;20235;-73
2021/12/20 08:29:03;;;;;;;1999.90;999.90;;;;;;;;;;5012188;28;20211;-73
2021/12/20 08:31:48;;;;;;;1999.90;999.90;;;;;;;;;;5012399;28;20349;-73
2021/12/20 08:34:33;;;;;;;1999.90;999.90;;;;;;;;;;5012328;28;20202;-72
2021/12/20 08:37:18;;;;;;;1999.90;999.90;;;;;;;;;;5012380;28;20208;-73
2021/12/20 08:40:03;;;;;;;1999.90;999.90;;;;;;;;;;5012305;28;20207;-73
2021/12/20 08:42:49;;;;;;;1999.90;999.90;;;;;;;;;;5012274;28;20204;-73
2021/12/20 08:45:35;;;;;;;1999.90;999.90;;;;;;;;;;5011695;28;20271;-73
2021/12/20 08:48:20;;;;;;;1999.90;999.90;;;;;;;;;;5011921;28;20331;-73
2021/12/20 08:51:06;;;;;;;1999.90;999.90;;;;;;;;;;5012368;28;20283;-73
2021/12/20 08:53:51;;;;;;;1999.90;999.90;;;;;;;;;;5012054;28;20636;-73
2021/12/20 08:56:36;;;;;;;1999.90;999.90;;;;;;;;;;5009330;28;20234;-73
2021/12/20 08:59:23;;;;;;;1999.90;999.90;;;;;;;;;;5002730;28;20245;-74
2021/12/20 09:02:09;;;;;;;1999.90;999.90;;;;;;;;;;5005008;28;20231;-74
2021/12/20 09:04:54;;;;;;;1999.90;999.90;;;;;;;;;;5011890;28;20236;-72
2021/12/20 09:07:41;;;;;;;1999.90;999.90;;;;;;;;;;4991724;28;20224;-73
2021/12/20 09:10:26;;;;;;;1999.90;999.90;;;;;;;;;;5007414;28;20312;-72
2021/12/20 09:13:10;;;;;;;1999.90;999.90;;;;;;;;;;5011836;28;20227;-73
2021/12/20 09:15:59;;;;;;;1999.90;999.90;;;;;;;;;;5011892;28;20602;-73
2021/12/20 09:18:44;;;;;;;1999.90;999.90;;;;;;;;;;5003437;28;20221;-73
2021/12/20 09:21:29;;;;;;;1999.90;999.90;;;;;;;;;;5013010;28;20218;-72
2021/12/20 09:24:14;;;;;;;1999.90;999.90;;;;;;;;;;5015374;28;20339;-73
2021/12/20 09:26:59;;;;;;;1999.90;999.90;;;;;;;;;;5011955;28;20221;-73
2021/12/20 09:29:44;;;;;;;1999.90;999.90;;;;;;;;;;5013642;28;20460;-73
2021/12/20 09:32:30;;;;;;;1999.90;999.90;;;;;;;;;;5014515;28;20213;-73
2021/12/20 09:35:16;;;;;;;1999.90;999.90;;;;;;;;;;5013877;28;20289;-73
2021/12/20 09:38:00;;;;;;;1999.90;999.90;;;;;;;;;;5015100;28;20317;-74
2021/12/20 09:41:11;;;;;;;1999.90;999.90;;;;;;;;;;5015479;28;20228;-74
2021/12/20 09:43:52;;;;;;;1999.90;999.90;;;;;;;;;;5006960;28;20211;-72
2021/12/20 09:46:38;;;;;;;1999.90;999.90;;;;;;;;;;5004422;28;20240;-73
2021/12/20 09:49:25;;;;;;;1999.90;999.90;;;;;;;;;;5015021;28;20211;-73
2021/12/20 09:52:10;;;;;;;1999.90;999.90;;;;;;;;;;5012761;28;20215;-73
2021/12/20 09:54:55;;;;;;;1999.90;999.90;;;;;;;;;;5010143;28;20227;-73
2021/12/20 09:57:41;;;;;;;1999.90;999.90;;;;;;;;;;5013239;28;20697;-74
2021/12/20 10:00:26;;;;;;;1999.90;999.90;;;;;;;;;;5014111;28;20697;-73
2021/12/20 10:03:13;;;;;;;1999.90;999.90;;;;;;;;;;5007556;28;20216;-73
2021/12/20 10:05:59;;;;;;;1999.90;999.90;;;;;;;;;;5014616;28;20231;-73
2021/12/20 10:08:50;;;;;;;1999.90;999.90;;;;;;;;;;5013881;28;20293;-73
2021/12/20 10:11:37;;;;;;;1999.90;999.90;;;;;;;;;;5015134;28;20282;-74
2021/12/20 10:14:22;;;;;;;1999.90;999.90;;;;;;;;;;5014204;28;20216;-73
2021/12/20 10:17:07;;;;;;;1999.90;999.90;;;;;;;;;;5013580;28;20701;-73
2021/12/20 10:19:52;;;;;;;1999.90;999.90;;;;;;;;;;5014130;28;20212;-73
2021/12/20 10:22:38;;;;;;;1999.90;999.90;;;;;;;;;;5014695;28;20261;-73
2021/12/20 10:25:24;;;;;;;1999.90;999.90;;;;;;;;;;5014196;28;20267;-72
2021/12/20 10:28:11;;;;;;;1999.90;999.90;;;;;;;;;;5011579;28;20236;-72
2021/12/20 10:30:58;;;;;;;1999.90;999.90;;;;;;;;;;5014696;28;20235;-73
2021/12/20 10:33:51;;;;;;;1999.90;999.90;;;;;;;;;;5014383;28;20582;-73
2021/12/20 10:36:36;;;;;;;1999.90;999.90;;;;;;;;;;5014107;28;20309;-73
2021/12/20 10:39:34;;;;;;;1999.90;999.90;;;;;;;;;;5014360;28;20588;-71
2021/12/20 10:42:20;;;;;;;1999.90;999.90;;;;;;;;;;5014315;28;20204;-73
2021/12/20 10:45:09;;;;;;;1999.90;999.90;;;;;;;;;;5007425;28;20235;-71
2021/12/20 10:47:54;;;;;;;1999.90;999.90;;;;;;;;;;5009350;28;20352;-73
2021/12/20 10:50:42;;;;;;;1999.90;999.90;;;;;;;;;;5011459;28;20919;-73
2021/12/20 10:53:27;;;;;;;1999.90;999.90;;;;;;;;;;5014218;28;20208;-73
2021/12/20 10:56:14;;;;;;;1999.90;999.90;;;;;;;;;;5014343;28;20232;-73
2021/12/20 10:59:00;;;;;;;1999.90;999.90;;;;;;;;;;5007994;28;20300;-73
2021/12/20 11:04:51;;;;;;;1999.90;999.90;;;;;;;;;;5012815;28;20229;-73
2021/12/20 11:10:39;;;;;;;1999.90;999.90;;;;;;;;;;5012713;28;20211;-74
2021/12/20 11:13:25;;;;;;;1999.90;999.90;;;;;;;;;;5003773;28;20274;-72
2021/12/20 11:16:27;;;;;;;1999.90;999.90;;;;;;;;;;5013266;28;20261;-74
2021/12/20 11:19:18;;;;;;;1999.90;999.90;;;;;;;;;;5013384;28;20208;-74
2021/12/20 11:22:07;;;;;;;1999.90;999.90;;;;;;;;;;5013265;28;20211;-73
2021/12/20 11:24:54;;;;;;;1999.90;999.90;;;;;;;;;;5013766;28;20220;-71
2021/12/20 11:27:40;;;;;;;1999.90;999.90;;;;;;;;;;5012931;28;20601;-73
2021/12/20 11:30:27;;;;;;;1999.90;999.90;;;;;;;;;;5013614;28;20335;-71
2021/12/20 11:33:14;;;;;;;1999.90;999.90;;;;;;;;;;5012996;28;20220;-72
2021/12/20 11:35:59;;;;;;;1999.90;999.90;;;;;;;;;;5012237;28;20268;-73
2021/12/20 11:38:44;;;;;;;1999.90;999.90;;;;;;;;;;5011389;28;20205;-72
2021/12/20 11:41:29;;;;;;;1999.90;999.90;;;;;;;;;;5013187;28;20243;-73
2021/12/20 11:44:15;;;;;;;1999.90;999.90;;;;;;;;;;5013124;28;20679;-73
2021/12/20 11:47:06;;;;;;;1999.90;999.90;;;;;;;;;;5011974;28;20435;-73
2021/12/20 11:49:55;;;;;;;1999.90;999.90;;;;;;;;;;5011821;28;20201;-73
2021/12/20 11:52:41;;;;;;;1999.90;999.90;;;;;;;;;;5010363;28;20257;-73
2021/12/20 11:55:28;;;;;;;1999.90;999.90;;;;;;;;;;5012586;28;20272;-72
2021/12/20 11:58:16;;;;;;;1999.90;999.90;;;;;;;;;;5011356;28;20711;-73
2021/12/20 12:01:02;;;;;;;1999.90;999.90;;;;;;;;;;5011888;28;20713;-74
2021/12/20 12:03:53;;;;;;;1999.90;999.90;;;;;;;;;;5011214;28;20216;-72
2021/12/20 12:06:40;;;;;;;1999.90;999.90;;;;;;;;;;5012557;28;20363;-73
2021/12/20 12:09:25;;;;;;;1999.90;999.90;;;;;;;;;;5011719;28;20217;-73
2021/12/20 12:12:27;;;;;;;1999.90;999.90;;;;;;;;;;5012052;28;20404;-72
2021/12/20 12:15:16;;;;;;;1999.90;999.90;;;;;;;;;;5011209;28;20344;-73
2021/12/20 12:18:03;;;;;;;1999.90;999.90;;;;;;;;;;5011226;28;20225;-73
2021/12/20 12:20:51;;;;;;;1999.90;999.90;;;;;;;;;;5012459;28;20580;-73
2021/12/20 12:23:44;;;;;;;1999.90;999.90;;;;;;;;;;5012547;28;20228;-73
2021/12/20 12:26:29;;;;;;;1999.90;999.90;;;;;;;;;;5011032;28;20606;-72
2021/12/20 12:29:16;;;;;;;1999.90;999.90;;;;;;;;;;5012047;28;20210;-73
2021/12/20 12:32:01;;;;;;;1999.90;999.90;;;;;;;;;;5011236;28;20209;-72
2021/12/20 12:34:48;;;;;;;1999.90;999.90;;;;;;;;;;5009946;28;20237;-73
2021/12/20 12:37:37;;;;;;;1999.90;999.90;;;;;;;;;;5010819;28;20212;-74
2021/12/20 12:40:23;;;;;;;1999.90;999.90;;;;;;;;;;5010333;28;20217;-73
2021/12/20 12:43:08;;;;;;;1999.90;999.90;;;;;;;;;;5005932;28;20215;-73
2021/12/20 12:45:53;;;;;;;1999.90;999.90;;;;;;;;;;5011981;28;20228;-73
2021/12/20 12:48:39;;;;;;;1999.90;999.90;;;;;;;;;;5010563;28;20348;-73
2021/12/20 12:51:40;;;;;;;1999.90;999.90;;;;;;;;;;5011269;28;20239;-73
2021/12/20 12:54:37;;;;;;;1999.90;999.90;;;;;;;;;;5011930;28;20212;-73
2021/12/20 12:57:32;;;;;;;1999.90;999.90;;;;;;;;;;5011824;28;20225;-73
2021/12/20 13:00:27;;;;;;;1999.90;999.90;;;;;;;;;;5010983;28;20356;-73
2021/12/20 13:03:14;;;;;;;1999.90;999.90;;;;;;;;;;5006161;28;20711;-73
2021/12/20 13:05:59;;;;;;;1999.90;999.90;;;;;;;;;;5009456;28;20232;-71
2021/12/20 13:08:50;;;;;;;1999.90;999.90;;;;;;;;;;5008978;28;20531;-73
2021/12/20 13:11:37;;;;;;;1999.90;999.90;;;;;;;;;;5008248;28;20211;-74
2021/12/20 13:14:22;;;;;;;1999.90;999.90;;;;;;;;;;5010774;28;20303;-71
2021/12/20 13:17:06;;;;;;;1999.90;999.90;;;;;;;;;;5010548;28;20220;-74
2021/12/20 13:19:56;;;;;;;1999.90;999.90;;;;;;;;;;5010407;28;20222;-71
2021/12/20 13:22:41;;;;;;;1999.90;999.90;;;;;;;;;;5008671;28;20199;-73
2021/12/20 13:25:34;;;;;;;1999.90;999.90;;;;;;;;;;5007659;28;20367;-72
2021/12/20 13:28:21;;;;;;;1999.90;999.90;;;;;;;;;;5005647;28;20224;-73
2021/12/20 13:31:07;;;;;;;1999.90;999.90;;;;;;;;;;5000478;28;20344;-71
2021/12/20 13:33:53;;;;;;;1999.90;999.90;;;;;;;;;;4991682;28;20413;-72
2021/12/20 13:36:38;;;;;;;1999.90;999.90;;;;;;;;;;5008567;28;20235;-72
2021/12/20 13:39:24;;;;;;;1999.90;999.90;;;;;;;;;;5009951;28;20354;-73
2021/12/20 13:42:10;;;;;;;1999.90;999.90;;;;;;;;;;5010469;28;20323;-73
2021/12/20 13:44:56;;;;;;;1999.90;999.90;;;;;;;;;;5007914;28;20235;-73
2021/12/20 13:47:41;;;;;;;1999.90;999.90;;;;;;;;;;5009912;28;20240;-73
2021/12/20 13:50:26;;;;;;;1999.90;999.90;;;;;;;;;;5012770;28;20455;-73
2021/12/20 13:53:11;;;;;;;1999.90;999.90;;;;;;;;;;5009261;28;20215;-73
2021/12/20 13:55:57;;;;;;;1999.90;999.90;;;;;;;;;;5005725;28;20269;-72
2021/12/20 13:58:46;;;;;;;1999.90;999.90;;;;;;;;;;5009839;28;20293;-72
2021/12/20 14:01:33;;;;;;;1999.90;999.90;;;;;;;;;;5002732;28;20213;-73
2021/12/20 14:04:29;;;;;;;1999.90;999.90;;;;;;;;;;5015072;28;20598;-73
2021/12/20 14:07:27;;;;;;;1999.90;999.90;;;;;;;;;;5011950;28;20215;-74
2021/12/20 14:10:14;;;;;;;1999.90;999.90;;;;;;;;;;5004180;28;20215;-73
2021/12/20 14:13:01;;;;;;;1999.90;999.90;;;;;;;;;;4995415;28;20212;-73
2021/12/20 14:15:46;;;;;;;1999.90;999.90;;;;;;;;;;5006470;28;20245;-73
2021/12/20 14:18:34;;;;;;;1999.90;999.90;;;;;;;;;;5013195;28;20209;-72
2021/12/20 14:21:24;;;;;;;1999.90;999.90;;;;;;;;;;5006745;28;20212;-72
2021/12/20 14:24:10;;;;;;;1999.90;999.90;;;;;;;;;;5009043;28;20263;-72
2021/12/20 14:27:03;;;;;;;1999.90;999.90;;;;;;;;;;5013882;28;20208;-73
2021/12/20 14:29:54;;;;;;;1999.90;999.90;;;;;;;;;;5013639;28;20200;-73
2021/12/20 14:32:42;;;;;;;1999.90;999.90;;;;;;;;;;5011408;28;20550;-73
2021/12/20 14:35:33;;;;;;;1999.90;999.90;;;;;;;;;;5013248;28;20258;-73
2021/12/20 14:38:35;;;;;;;1999.90;999.90;;;;;;;;;;5011945;28;20663;-73
2021/12/20 14:41:22;;;;;;;1999.90;999.90;;;;;;;;;;5010659;28;20232;-74
2021/12/20 14:44:23;;;;;;;1999.90;999.90;;;;;;;;;;5002633;28;20212;-73
2021/12/20 14:47:11;;;;;;;1999.90;999.90;;;;;;;;;;5006843;28;20211;-73
2021/12/20 14:50:03;;;;;;;1999.90;999.90;;;;;;;;;;5013206;28;20266;-73
2021/12/20 14:52:49;;;;;;;1999.90;999.90;;;;;;;;;;5014202;28;20211;-73
2021/12/20 14:55:35;;;;;;;1999.90;999.90;;;;;;;;;;5010261;28;20235;-74
2021/12/20 14:58:20;;;;;;;1999.90;999.90;;;;;;;;;;5009889;28;20436;-71
2021/12/20 15:01:06;;;;;;;1999.90;999.90;;;;;;;;;;5013900;28;20232;-72
2021/12/20 15:03:51;;;;;;;1999.90;999.90;;;;;;;;;;5012380;28;20203;-73
2021/12/20 15:06:40;;;;;;;1999.90;999.90;;;;;;;;;;5013419;28;20743;-73
2021/12/20 15:09:28;;;;;;;1999.90;999.90;;;;;;;;;;5013107;28;20238;-73
2021/12/20 15:12:14;;;;;;;1999.90;999.90;;;;;;;;;;5012766;28;20215;-73
2021/12/20 15:14:59;;;;;;;1999.90;999.90;;;;;;;;;;5012493;28;20783;-72
2021/12/20 15:17:44;;;;;;;1999.90;999.90;;;;;;;;;;5013248;28;20214;-71
2021/12/20 15:20:29;;;;;;;1999.90;999.90;;;;;;;;;;5013480;28;20252;-73
2021/12/20 15:23:14;;;;;;;1999.90;999.90;;;;;;;;;;5013553;28;20416;-72
2021/12/20 15:26:00;;;;;;;1999.90;999.90;;;;;;;;;;5010561;28;20609;-73
2021/12/20 15:28:45;;;;;;;1999.90;999.90;;;;;;;;;;5010852;28;20225;-74
2021/12/20 15:31:31;;;;;;;1999.90;999.90;;;;;;;;;;5010274;28;20285;-73
2021/12/20 15:34:17;;;;;;;1999.90;999.90;;;;;;;;;;5012237;28;20219;-73
2021/12/20 15:37:02;;;;;;;1999.90;999.90;;;;;;;;;;5013361;28;20212;-73
2021/12/20 15:39:47;;;;;;;1999.90;999.90;;;;;;;;;;5011800;28;20210;-73
2021/12/20 15:42:34;;;;;;;1999.90;999.90;;;;;;;;;;5009522;28;20218;-73
2021/12/20 15:45:19;;;;;;;1999.90;999.90;;;;;;;;;;5012951;28;20281;-73